createdAt,value
2018-10-07T00:01:50.000Z,31
2018-10-07T00:02:50.000Z,31
2018-10-07T00:04:50.000Z,31
2018-10-07T00:05:50.000Z,31
2018-10-07T00:07:50.000Z,31
2018-10-07T00:08:50.000Z,31
2018-10-07T00:09:50.000Z,31
2018-10-07T00:10:50.000Z,31
2018-10-07T00:11:50.000Z,31
2018-10-07T00:13:50.000Z,31
2018-10-07T00:14:50.000Z,31
2018-10-07T00:15:50.000Z,32
2018-10-07T00:17:50.000Z,31
2018-10-07T00:18:50.000Z,31
2018-10-07T00:19:50.000Z,31
2018-10-07T00:20:50.000Z,31
2018-10-07T00:21:50.000Z,31
2018-10-07T00:22:50.000Z,31
2018-10-07T00:23:50.000Z,31
2018-10-07T00:24:50.000Z,31
2018-10-07T00:26:50.000Z,31
2018-10-07T00:27:50.000Z,31
2018-10-07T00:28:50.000Z,31
2018-10-07T00:29:50.000Z,31
2018-10-07T00:31:50.000Z,31
2018-10-07T00:32:50.000Z,31
2018-10-07T00:33:50.000Z,31
2018-10-07T00:35:50.000Z,31
2018-10-07T00:36:50.000Z,31
2018-10-07T00:37:50.000Z,31
2018-10-07T00:38:50.000Z,32
2018-10-07T00:39:50.000Z,32
2018-10-07T00:40:51.000Z,32
2018-10-07T00:42:51.000Z,31
2018-10-07T00:43:50.000Z,31
2018-10-07T00:44:50.000Z,32
2018-10-07T00:45:51.000Z,31
2018-10-07T00:46:51.000Z,31
2018-10-07T00:48:51.000Z,31
2018-10-07T00:49:51.000Z,31
2018-10-07T00:50:51.000Z,31
2018-10-07T00:51:51.000Z,31
2018-10-07T00:52:51.000Z,31
2018-10-07T00:53:51.000Z,31
2018-10-07T00:54:51.000Z,31
2018-10-07T00:55:51.000Z,31
2018-10-07T00:56:51.000Z,31
2018-10-07T00:57:51.000Z,31
2018-10-07T00:58:51.000Z,31
2018-10-07T01:00:51.000Z,31
2018-10-07T01:01:51.000Z,31
2018-10-07T01:02:51.000Z,31
2018-10-07T01:04:51.000Z,31
2018-10-07T01:05:51.000Z,31
2018-10-07T01:07:51.000Z,31
2018-10-07T01:08:51.000Z,32
2018-10-07T01:10:51.000Z,31
2018-10-07T01:11:51.000Z,32
2018-10-07T01:12:51.000Z,32
2018-10-07T01:13:51.000Z,32
2018-10-07T01:14:51.000Z,31
2018-10-07T01:15:51.000Z,31
2018-10-07T01:16:51.000Z,32
2018-10-07T01:17:51.000Z,31
2018-10-07T01:18:51.000Z,31
2018-10-07T01:19:51.000Z,31
2018-10-07T01:20:51.000Z,31
2018-10-07T01:22:51.000Z,31
2018-10-07T01:23:51.000Z,31
2018-10-07T01:24:51.000Z,31
2018-10-07T01:26:51.000Z,31
2018-10-07T01:28:51.000Z,31
2018-10-07T01:29:51.000Z,31
2018-10-07T01:30:51.000Z,32
2018-10-07T01:31:51.000Z,31
2018-10-07T01:33:51.000Z,31
2018-10-07T01:34:51.000Z,32
2018-10-07T01:35:51.000Z,32
2018-10-07T01:36:51.000Z,31
2018-10-07T01:37:51.000Z,32
2018-10-07T01:38:51.000Z,32
2018-10-07T01:39:51.000Z,32
2018-10-07T01:40:50.000Z,32
2018-10-07T01:41:50.000Z,31
2018-10-07T01:42:50.000Z,32
2018-10-07T01:43:50.000Z,32
2018-10-07T01:44:50.000Z,31
2018-10-07T01:45:50.000Z,31
2018-10-07T01:46:50.000Z,31
2018-10-07T01:47:50.000Z,31
2018-10-07T01:48:50.000Z,31
2018-10-07T01:49:50.000Z,31
2018-10-07T01:50:50.000Z,31
2018-10-07T01:52:50.000Z,31
2018-10-07T01:53:50.000Z,31
2018-10-07T01:54:50.000Z,32
2018-10-07T01:55:50.000Z,31
2018-10-07T01:56:50.000Z,31
2018-10-07T01:57:50.000Z,31
2018-10-07T01:58:50.000Z,31
2018-10-07T01:59:50.000Z,32
2018-10-07T02:00:50.000Z,31
2018-10-07T02:01:50.000Z,31
2018-10-07T02:02:50.000Z,31
2018-10-07T02:03:50.000Z,31
2018-10-07T02:04:50.000Z,32
2018-10-07T02:05:50.000Z,31
2018-10-07T02:06:50.000Z,31
2018-10-07T02:07:50.000Z,31
2018-10-07T02:08:50.000Z,31
2018-10-07T02:09:50.000Z,32
2018-10-07T02:10:50.000Z,32
2018-10-07T02:11:50.000Z,31
2018-10-07T02:12:50.000Z,31
2018-10-07T02:14:50.000Z,31
2018-10-07T02:15:50.000Z,31
2018-10-07T02:16:50.000Z,31
2018-10-07T02:17:50.000Z,32
2018-10-07T02:18:50.000Z,31
2018-10-07T02:20:50.000Z,31
2018-10-07T02:21:50.000Z,31
2018-10-07T02:22:50.000Z,31
2018-10-07T02:23:50.000Z,31
2018-10-07T02:24:50.000Z,31
2018-10-07T02:25:50.000Z,32
2018-10-07T02:26:50.000Z,32
2018-10-07T02:27:50.000Z,31
2018-10-07T02:28:50.000Z,32
2018-10-07T02:29:50.000Z,31
2018-10-07T02:30:50.000Z,32
2018-10-07T02:31:50.000Z,32
2018-10-07T02:33:50.000Z,31
2018-10-07T02:34:50.000Z,32
2018-10-07T02:35:50.000Z,32
2018-10-07T02:36:50.000Z,31
2018-10-07T02:37:50.000Z,32
2018-10-07T02:39:50.000Z,31
2018-10-07T02:40:50.000Z,32
2018-10-07T02:41:50.000Z,31
2018-10-07T02:42:50.000Z,32
2018-10-07T02:44:50.000Z,32
2018-10-07T02:45:50.000Z,32
2018-10-07T02:46:50.000Z,32
2018-10-07T02:47:50.000Z,32
2018-10-07T02:48:50.000Z,32
2018-10-07T02:49:50.000Z,32
2018-10-07T02:50:50.000Z,32
2018-10-07T02:51:50.000Z,32
2018-10-07T02:52:50.000Z,32
2018-10-07T02:53:50.000Z,31
2018-10-07T02:54:50.000Z,32
2018-10-07T02:56:50.000Z,31
2018-10-07T02:57:50.000Z,32
2018-10-07T02:58:50.000Z,32
2018-10-07T02:59:50.000Z,32
2018-10-07T03:00:50.000Z,31
2018-10-07T03:01:50.000Z,32
2018-10-07T03:02:50.000Z,31
2018-10-07T03:03:50.000Z,31
2018-10-07T03:04:50.000Z,32
2018-10-07T03:05:50.000Z,32
2018-10-07T03:06:50.000Z,31
2018-10-07T03:08:50.000Z,31
2018-10-07T03:09:50.000Z,31
2018-10-07T03:10:50.000Z,32
2018-10-07T03:11:50.000Z,31
2018-10-07T03:12:50.000Z,32
2018-10-07T03:14:50.000Z,31
2018-10-07T03:15:50.000Z,32
2018-10-07T03:16:50.000Z,32
2018-10-07T03:17:50.000Z,32
2018-10-07T03:18:50.000Z,31
2018-10-07T03:19:50.000Z,32
2018-10-07T03:20:50.000Z,32
2018-10-07T03:21:50.000Z,32
2018-10-07T03:22:50.000Z,32
2018-10-07T03:24:50.000Z,31
2018-10-07T03:26:50.000Z,31
2018-10-07T03:27:50.000Z,31
2018-10-07T03:28:50.000Z,31
2018-10-07T03:29:50.000Z,32
2018-10-07T03:31:50.000Z,31
2018-10-07T03:32:50.000Z,32
2018-10-07T03:33:50.000Z,32
2018-10-07T03:34:50.000Z,32
2018-10-07T03:36:50.000Z,32
2018-10-07T03:37:50.000Z,32
2018-10-07T03:39:50.000Z,32
2018-10-07T03:41:50.000Z,32
2018-10-07T03:42:50.000Z,32
2018-10-07T03:43:50.000Z,32
2018-10-07T03:44:50.000Z,32
2018-10-07T03:45:50.000Z,32
2018-10-07T03:46:50.000Z,32
2018-10-07T03:47:50.000Z,32
2018-10-07T03:49:50.000Z,32
2018-10-07T03:50:50.000Z,32
2018-10-07T03:51:50.000Z,32
2018-10-07T03:52:50.000Z,32
2018-10-07T03:53:50.000Z,32
2018-10-07T03:54:50.000Z,32
2018-10-07T03:55:50.000Z,32
2018-10-07T03:57:50.000Z,32
2018-10-07T03:59:50.000Z,32
2018-10-07T04:00:50.000Z,32
2018-10-07T04:01:50.000Z,32
2018-10-07T04:02:50.000Z,32
2018-10-07T04:03:50.000Z,32
2018-10-07T04:04:50.000Z,32
2018-10-07T04:05:50.000Z,32
2018-10-07T04:06:50.000Z,32
2018-10-07T04:07:50.000Z,32
2018-10-07T04:09:50.000Z,32
2018-10-07T04:10:50.000Z,32
2018-10-07T04:11:50.000Z,32
2018-10-07T04:12:50.000Z,32
2018-10-07T04:13:50.000Z,32
2018-10-07T04:14:50.000Z,32
2018-10-07T04:16:50.000Z,32
2018-10-07T04:17:50.000Z,32
2018-10-07T04:18:50.000Z,32
2018-10-07T04:19:50.000Z,32
2018-10-07T04:20:50.000Z,32
2018-10-07T04:22:50.000Z,32
2018-10-07T04:23:50.000Z,32
2018-10-07T04:24:50.000Z,32
2018-10-07T04:25:50.000Z,32
2018-10-07T04:26:50.000Z,32
2018-10-07T04:28:50.000Z,32
2018-10-07T04:29:50.000Z,32
2018-10-07T04:30:50.000Z,32
2018-10-07T04:31:50.000Z,32
2018-10-07T04:32:50.000Z,32
2018-10-07T04:34:50.000Z,32
2018-10-07T04:35:50.000Z,32
2018-10-07T04:36:50.000Z,32
2018-10-07T04:37:50.000Z,32
2018-10-07T04:38:50.000Z,32
2018-10-07T04:39:50.000Z,32
2018-10-07T04:40:50.000Z,32
2018-10-07T04:41:50.000Z,32
2018-10-07T04:43:50.000Z,32
2018-10-07T04:44:50.000Z,32
2018-10-07T04:45:50.000Z,32
2018-10-07T04:46:50.000Z,32
2018-10-07T04:47:50.000Z,32
2018-10-07T04:48:50.000Z,32
2018-10-07T04:49:50.000Z,32
2018-10-07T04:50:50.000Z,32
2018-10-07T04:51:50.000Z,32
2018-10-07T04:52:50.000Z,32
2018-10-07T04:53:50.000Z,32
2018-10-07T04:54:50.000Z,32
2018-10-07T04:55:50.000Z,32
2018-10-07T04:56:50.000Z,32
2018-10-07T04:57:50.000Z,32
2018-10-07T04:58:50.000Z,32
2018-10-07T04:59:50.000Z,32
2018-10-07T05:01:50.000Z,32
2018-10-07T05:02:50.000Z,32
2018-10-07T05:03:50.000Z,32
2018-10-07T05:04:50.000Z,32
2018-10-07T05:05:50.000Z,32
2018-10-07T05:07:50.000Z,32
2018-10-07T05:08:50.000Z,32
2018-10-07T05:09:50.000Z,32
2018-10-07T05:10:50.000Z,32
2018-10-07T05:11:50.000Z,32
2018-10-07T05:12:50.000Z,32
2018-10-07T05:13:50.000Z,32
2018-10-07T05:14:50.000Z,32
2018-10-07T05:15:50.000Z,32
2018-10-07T05:16:50.000Z,32
2018-10-07T05:17:50.000Z,32
2018-10-07T05:18:50.000Z,32
2018-10-07T05:19:50.000Z,32
2018-10-07T05:20:50.000Z,32
2018-10-07T05:21:50.000Z,32
2018-10-07T05:22:50.000Z,32
2018-10-07T05:23:50.000Z,32
2018-10-07T05:24:50.000Z,32
2018-10-07T05:25:50.000Z,32
2018-10-07T05:26:50.000Z,32
2018-10-07T05:27:50.000Z,32
2018-10-07T05:28:50.000Z,32
2018-10-07T05:29:50.000Z,32
2018-10-07T05:30:50.000Z,32
2018-10-07T05:31:50.000Z,32
2018-10-07T05:32:50.000Z,32
2018-10-07T05:34:50.000Z,32
2018-10-07T05:35:50.000Z,32
2018-10-07T05:36:50.000Z,32
2018-10-07T05:37:50.000Z,32
2018-10-07T05:38:50.000Z,32
2018-10-07T05:39:50.000Z,32
2018-10-07T05:40:50.000Z,32
2018-10-07T05:41:50.000Z,32
2018-10-07T05:42:50.000Z,32
2018-10-07T05:43:50.000Z,32
2018-10-07T05:44:50.000Z,32
2018-10-07T05:45:50.000Z,32
2018-10-07T05:46:50.000Z,32
2018-10-07T05:47:50.000Z,32
2018-10-07T05:48:50.000Z,32
2018-10-07T05:49:50.000Z,32
2018-10-07T05:50:50.000Z,32
2018-10-07T05:51:50.000Z,32
2018-10-07T05:52:50.000Z,32
2018-10-07T05:53:50.000Z,32
2018-10-07T05:54:50.000Z,32
2018-10-07T05:56:50.000Z,32
2018-10-07T05:57:50.000Z,32
2018-10-07T05:58:50.000Z,32
2018-10-07T05:59:50.000Z,32
2018-10-07T06:00:50.000Z,32
2018-10-07T06:01:50.000Z,32
2018-10-07T06:02:50.000Z,32
2018-10-07T06:03:50.000Z,32
2018-10-07T06:04:50.000Z,32
2018-10-07T06:05:50.000Z,32
2018-10-07T06:06:50.000Z,32
2018-10-07T06:07:50.000Z,32
2018-10-07T06:08:50.000Z,32
2018-10-07T06:09:50.000Z,32
2018-10-07T06:10:50.000Z,32
2018-10-07T06:11:50.000Z,32
2018-10-07T06:12:50.000Z,32
2018-10-07T06:13:50.000Z,32
2018-10-07T06:14:50.000Z,32
2018-10-07T06:15:50.000Z,32
2018-10-07T06:16:50.000Z,32
2018-10-07T06:18:50.000Z,32
2018-10-07T06:19:50.000Z,32
2018-10-07T06:20:50.000Z,32
2018-10-07T06:21:50.000Z,32
2018-10-07T06:22:50.000Z,32
2018-10-07T06:23:50.000Z,32
2018-10-07T06:24:50.000Z,32
2018-10-07T06:25:50.000Z,32
2018-10-07T06:26:50.000Z,32
2018-10-07T06:27:50.000Z,32
2018-10-07T06:28:50.000Z,32
2018-10-07T06:29:50.000Z,32
2018-10-07T06:30:50.000Z,32
2018-10-07T06:31:50.000Z,32
2018-10-07T06:32:50.000Z,32
2018-10-07T06:33:50.000Z,32
2018-10-07T06:34:50.000Z,32
2018-10-07T06:35:50.000Z,32
2018-10-07T06:36:50.000Z,32
2018-10-07T06:37:50.000Z,32
2018-10-07T06:38:50.000Z,32
2018-10-07T06:39:50.000Z,32
2018-10-07T06:40:50.000Z,32
2018-10-07T06:41:50.000Z,32
2018-10-07T06:42:50.000Z,32
2018-10-07T06:43:50.000Z,32
2018-10-07T06:44:50.000Z,32
2018-10-07T06:45:50.000Z,32
2018-10-07T06:46:50.000Z,32
2018-10-07T06:47:50.000Z,32
2018-10-07T06:48:50.000Z,32
2018-10-07T06:49:50.000Z,32
2018-10-07T06:50:50.000Z,32
2018-10-07T06:51:50.000Z,31
2018-10-07T06:52:50.000Z,31
2018-10-07T06:53:50.000Z,31
2018-10-07T06:54:50.000Z,31
2018-10-07T06:55:50.000Z,31
2018-10-07T06:56:50.000Z,31
2018-10-07T06:57:50.000Z,31
2018-10-07T06:58:50.000Z,31
2018-10-07T07:00:51.000Z,31
2018-10-07T07:01:51.000Z,31
2018-10-07T07:02:51.000Z,31
2018-10-07T07:03:51.000Z,31
2018-10-07T07:04:51.000Z,31
2018-10-07T07:05:51.000Z,31
2018-10-07T07:06:51.000Z,31
2018-10-07T07:07:51.000Z,31
2018-10-07T07:08:51.000Z,31
2018-10-07T07:09:51.000Z,31
2018-10-07T07:10:51.000Z,31
2018-10-07T07:11:51.000Z,31
2018-10-07T07:12:51.000Z,31
2018-10-07T07:13:51.000Z,31
2018-10-07T07:14:51.000Z,31
2018-10-07T07:16:51.000Z,31
2018-10-07T07:17:51.000Z,31
2018-10-07T07:18:51.000Z,31
2018-10-07T07:20:51.000Z,31
2018-10-07T07:21:51.000Z,31
2018-10-07T07:22:51.000Z,31
2018-10-07T07:23:51.000Z,31
2018-10-07T07:24:51.000Z,31
2018-10-07T07:25:51.000Z,31
2018-10-07T07:26:51.000Z,31
2018-10-07T07:27:51.000Z,31
2018-10-07T07:28:51.000Z,31
2018-10-07T07:29:51.000Z,31
2018-10-07T07:30:51.000Z,31
2018-10-07T07:31:51.000Z,31
2018-10-07T07:32:51.000Z,31
2018-10-07T07:33:51.000Z,31
2018-10-07T07:34:51.000Z,31
2018-10-07T07:35:51.000Z,31
2018-10-07T07:36:51.000Z,31
2018-10-07T07:37:51.000Z,31
2018-10-07T07:39:51.000Z,31
2018-10-07T07:40:51.000Z,31
2018-10-07T07:41:51.000Z,31
2018-10-07T07:42:51.000Z,31
2018-10-07T07:43:51.000Z,31
2018-10-07T07:45:51.000Z,31
2018-10-07T07:46:51.000Z,31
2018-10-07T07:47:51.000Z,31
2018-10-07T07:48:51.000Z,31
2018-10-07T07:50:51.000Z,31
2018-10-07T07:51:51.000Z,31
2018-10-07T07:52:51.000Z,31
2018-10-07T07:54:51.000Z,31
2018-10-07T07:55:51.000Z,31
2018-10-07T07:56:51.000Z,31
2018-10-07T07:57:51.000Z,31
2018-10-07T07:58:51.000Z,31
2018-10-07T08:00:51.000Z,31
2018-10-07T08:01:51.000Z,31
2018-10-07T08:02:51.000Z,31
2018-10-07T08:03:50.000Z,31
2018-10-07T08:04:50.000Z,31
2018-10-07T08:05:50.000Z,31
2018-10-07T08:06:50.000Z,31
2018-10-07T08:07:50.000Z,31
2018-10-07T08:08:50.000Z,31
2018-10-07T08:09:50.000Z,31
2018-10-07T08:10:50.000Z,31
2018-10-07T08:11:50.000Z,30
2018-10-07T08:12:50.000Z,30
2018-10-07T08:13:50.000Z,30
2018-10-07T08:14:50.000Z,30
2018-10-07T08:15:50.000Z,30
2018-10-07T08:17:50.000Z,30
2018-10-07T08:18:50.000Z,30
2018-10-07T08:19:50.000Z,30
2018-10-07T08:20:50.000Z,30
2018-10-07T08:22:50.000Z,30
2018-10-07T08:23:50.000Z,30
2018-10-07T08:24:50.000Z,30
2018-10-07T08:25:50.000Z,30
2018-10-07T08:26:50.000Z,30
2018-10-07T08:27:50.000Z,30
2018-10-07T08:28:50.000Z,30
2018-10-07T08:29:50.000Z,30
2018-10-07T08:30:50.000Z,30
2018-10-07T08:31:50.000Z,30
2018-10-07T08:32:50.000Z,29
2018-10-07T08:33:50.000Z,30
2018-10-07T08:34:50.000Z,30
2018-10-07T08:35:50.000Z,29
2018-10-07T08:36:50.000Z,29
2018-10-07T08:37:50.000Z,29
2018-10-07T08:38:50.000Z,29
2018-10-07T08:39:50.000Z,29
2018-10-07T08:40:50.000Z,29
2018-10-07T08:42:50.000Z,29
2018-10-07T08:43:50.000Z,29
2018-10-07T08:45:50.000Z,29
2018-10-07T08:46:50.000Z,29
2018-10-07T08:47:50.000Z,29
2018-10-07T08:48:50.000Z,29
2018-10-07T08:49:50.000Z,29
2018-10-07T08:51:50.000Z,29
2018-10-07T08:52:50.000Z,29
2018-10-07T08:54:50.000Z,29
2018-10-07T08:55:50.000Z,29
2018-10-07T08:56:50.000Z,29
2018-10-07T08:57:50.000Z,29
2018-10-07T08:58:50.000Z,29
2018-10-07T09:00:50.000Z,29
2018-10-07T09:01:50.000Z,29
2018-10-07T09:02:50.000Z,29
2018-10-07T09:03:50.000Z,29
2018-10-07T09:04:50.000Z,29
2018-10-07T09:05:50.000Z,29
2018-10-07T09:06:50.000Z,29
2018-10-07T09:07:50.000Z,29
2018-10-07T09:08:50.000Z,29
2018-10-07T09:09:50.000Z,29
2018-10-07T09:10:50.000Z,29
2018-10-07T09:11:50.000Z,29
2018-10-07T09:13:50.000Z,29
2018-10-07T09:14:50.000Z,29
2018-10-07T09:15:50.000Z,29
2018-10-07T09:16:50.000Z,29
2018-10-07T09:17:50.000Z,28
2018-10-07T09:18:50.000Z,29
2018-10-07T09:19:50.000Z,29
2018-10-07T09:20:50.000Z,29
2018-10-07T09:21:50.000Z,29
2018-10-07T09:22:50.000Z,29
2018-10-07T09:23:50.000Z,29
2018-10-07T09:24:50.000Z,29
2018-10-07T09:25:50.000Z,29
2018-10-07T09:26:50.000Z,29
2018-10-07T09:27:50.000Z,29
2018-10-07T09:28:50.000Z,29
2018-10-07T09:29:50.000Z,29
2018-10-07T09:30:50.000Z,29
2018-10-07T09:31:50.000Z,29
2018-10-07T09:32:50.000Z,29
2018-10-07T09:33:50.000Z,29
2018-10-07T09:34:50.000Z,29
2018-10-07T09:35:50.000Z,29
2018-10-07T09:36:50.000Z,29
2018-10-07T09:38:50.000Z,29
2018-10-07T09:39:50.000Z,29
2018-10-07T09:40:50.000Z,29
2018-10-07T09:41:50.000Z,29
2018-10-07T09:42:50.000Z,29
2018-10-07T09:43:50.000Z,29
2018-10-07T09:44:50.000Z,29
2018-10-07T09:45:50.000Z,29
2018-10-07T09:46:50.000Z,29
2018-10-07T09:47:50.000Z,29
2018-10-07T09:48:50.000Z,29
2018-10-07T09:50:50.000Z,29
2018-10-07T09:51:50.000Z,29
2018-10-07T09:52:50.000Z,29
2018-10-07T09:53:50.000Z,29
2018-10-07T09:54:50.000Z,29
2018-10-07T09:55:50.000Z,29
2018-10-07T09:56:50.000Z,29
2018-10-07T09:57:50.000Z,29
2018-10-07T09:58:50.000Z,29
2018-10-07T09:59:50.000Z,29
2018-10-07T10:00:50.000Z,29
2018-10-07T10:01:50.000Z,29
2018-10-07T10:02:50.000Z,29
2018-10-07T10:03:50.000Z,29
2018-10-07T10:04:50.000Z,28
2018-10-07T10:05:50.000Z,28
2018-10-07T10:06:50.000Z,27
2018-10-07T10:07:50.000Z,26
2018-10-07T10:08:50.000Z,26
2018-10-07T10:10:50.000Z,25
2018-10-07T10:11:50.000Z,24
2018-10-07T10:13:50.000Z,23
2018-10-07T10:14:50.000Z,24
2018-10-07T10:15:50.000Z,24
2018-10-07T10:17:50.000Z,24
2018-10-07T10:18:50.000Z,25
2018-10-07T10:19:50.000Z,25
2018-10-07T10:20:50.000Z,25
2018-10-07T10:21:50.000Z,26
2018-10-07T10:22:50.000Z,26
2018-10-07T10:23:50.000Z,26
2018-10-07T10:24:50.000Z,26
2018-10-07T10:25:50.000Z,26
2018-10-07T10:26:50.000Z,26
2018-10-07T10:27:50.000Z,27
2018-10-07T10:29:50.000Z,27
2018-10-07T10:30:50.000Z,27
2018-10-07T10:31:50.000Z,27
2018-10-07T10:32:50.000Z,27
2018-10-07T10:34:50.000Z,27
2018-10-07T10:35:50.000Z,27
2018-10-07T10:36:50.000Z,27
2018-10-07T10:38:50.000Z,27
2018-10-07T10:39:50.000Z,28
2018-10-07T10:40:50.000Z,28
2018-10-07T10:41:50.000Z,28
2018-10-07T10:42:50.000Z,28
2018-10-07T10:43:50.000Z,28
2018-10-07T10:44:50.000Z,28
2018-10-07T10:45:50.000Z,28
2018-10-07T10:46:50.000Z,28
2018-10-07T10:47:50.000Z,28
2018-10-07T10:48:50.000Z,28
2018-10-07T10:49:50.000Z,28
2018-10-07T10:50:50.000Z,28
2018-10-07T10:52:50.000Z,28
2018-10-07T10:53:50.000Z,28
2018-10-07T10:54:50.000Z,28
2018-10-07T10:55:50.000Z,28
2018-10-07T10:56:50.000Z,28
2018-10-07T10:57:50.000Z,28
2018-10-07T10:58:50.000Z,28
2018-10-07T10:59:50.000Z,28
2018-10-07T11:00:50.000Z,28
2018-10-07T11:02:50.000Z,28
2018-10-07T11:04:50.000Z,28
2018-10-07T11:05:50.000Z,28
2018-10-07T11:06:50.000Z,29
2018-10-07T11:07:50.000Z,29
2018-10-07T11:08:50.000Z,29
2018-10-07T11:09:50.000Z,29
2018-10-07T11:10:50.000Z,28
2018-10-07T11:11:50.000Z,29
2018-10-07T11:12:50.000Z,28
2018-10-07T11:13:50.000Z,29
2018-10-07T11:14:51.000Z,29
2018-10-07T11:15:51.000Z,29
2018-10-07T11:16:51.000Z,29
2018-10-07T11:17:51.000Z,29
2018-10-07T11:18:51.000Z,28
2018-10-07T11:19:51.000Z,29
2018-10-07T11:20:51.000Z,29
2018-10-07T11:21:51.000Z,29
2018-10-07T11:22:51.000Z,28
2018-10-07T11:24:51.000Z,28
2018-10-07T11:25:51.000Z,28
2018-10-07T11:26:51.000Z,29
2018-10-07T11:27:51.000Z,29
2018-10-07T11:28:51.000Z,28
2018-10-07T11:30:51.000Z,26
2018-10-07T11:31:51.000Z,25
2018-10-07T11:32:51.000Z,24
2018-10-07T11:33:51.000Z,24
2018-10-07T11:34:51.000Z,23
2018-10-07T11:35:51.000Z,23
2018-10-07T11:36:51.000Z,22
2018-10-07T11:37:51.000Z,22
2018-10-07T11:38:51.000Z,22
2018-10-07T11:39:51.000Z,22
2018-10-07T11:40:51.000Z,23
2018-10-07T11:41:51.000Z,23
2018-10-07T11:42:51.000Z,23
2018-10-07T11:43:51.000Z,23
2018-10-07T11:44:51.000Z,24
2018-10-07T11:45:51.000Z,24
2018-10-07T11:46:51.000Z,24
2018-10-07T11:47:51.000Z,24
2018-10-07T11:49:51.000Z,25
2018-10-07T11:50:51.000Z,25
2018-10-07T11:52:51.000Z,25
2018-10-07T11:53:51.000Z,26
2018-10-07T11:54:51.000Z,26
2018-10-07T11:55:51.000Z,26
2018-10-07T11:57:51.000Z,26
2018-10-07T11:58:51.000Z,26
2018-10-07T11:59:51.000Z,26
2018-10-07T12:00:51.000Z,26
2018-10-07T12:01:51.000Z,27
2018-10-07T12:02:51.000Z,27
2018-10-07T12:03:51.000Z,27
2018-10-07T12:04:51.000Z,27
2018-10-07T12:05:51.000Z,27
2018-10-07T12:06:51.000Z,27
2018-10-07T12:07:51.000Z,27
2018-10-07T12:08:51.000Z,27
2018-10-07T12:10:51.000Z,27
2018-10-07T12:11:51.000Z,27
2018-10-07T12:12:51.000Z,27
2018-10-07T12:13:51.000Z,27
2018-10-07T12:14:51.000Z,27
2018-10-07T12:15:51.000Z,27
2018-10-07T12:16:51.000Z,27
2018-10-07T12:17:51.000Z,27
2018-10-07T12:18:51.000Z,27
2018-10-07T12:19:51.000Z,27
2018-10-07T12:20:51.000Z,27
2018-10-07T12:21:51.000Z,27
2018-10-07T12:23:51.000Z,27
2018-10-07T12:24:51.000Z,27
2018-10-07T12:25:51.000Z,27
2018-10-07T12:26:51.000Z,27
2018-10-07T12:27:51.000Z,27
2018-10-07T12:28:51.000Z,27
2018-10-07T12:29:51.000Z,27
2018-10-07T12:30:51.000Z,27
2018-10-07T12:31:51.000Z,27
2018-10-07T12:32:51.000Z,27
2018-10-07T12:33:51.000Z,27
2018-10-07T12:34:51.000Z,27
2018-10-07T12:35:51.000Z,27
2018-10-07T12:36:51.000Z,27
2018-10-07T12:37:51.000Z,27
2018-10-07T12:38:51.000Z,27
2018-10-07T12:39:51.000Z,28
2018-10-07T12:40:51.000Z,27
2018-10-07T12:41:51.000Z,27
2018-10-07T12:42:51.000Z,28
2018-10-07T12:43:51.000Z,27
2018-10-07T12:44:51.000Z,28
2018-10-07T12:45:51.000Z,27
2018-10-07T12:46:51.000Z,28
2018-10-07T12:47:51.000Z,28
2018-10-07T12:48:51.000Z,28
2018-10-07T12:50:51.000Z,27
2018-10-07T12:51:51.000Z,28
2018-10-07T12:52:51.000Z,27
2018-10-07T12:53:51.000Z,28
2018-10-07T12:55:51.000Z,28
2018-10-07T12:56:51.000Z,28
2018-10-07T12:57:51.000Z,28
2018-10-07T12:58:51.000Z,28
2018-10-07T12:59:51.000Z,28
2018-10-07T13:00:51.000Z,28
2018-10-07T13:01:51.000Z,28
2018-10-07T13:03:51.000Z,28
2018-10-07T13:04:51.000Z,28
2018-10-07T13:05:51.000Z,28
2018-10-07T13:06:51.000Z,28
2018-10-07T13:07:51.000Z,28
2018-10-07T13:09:51.000Z,28
2018-10-07T13:10:51.000Z,28
2018-10-07T13:11:51.000Z,28
2018-10-07T13:12:51.000Z,28
2018-10-07T13:14:51.000Z,28
2018-10-07T13:15:51.000Z,28
2018-10-07T13:16:51.000Z,28
2018-10-07T13:17:51.000Z,28
2018-10-07T13:18:51.000Z,28
2018-10-07T13:19:51.000Z,28
2018-10-07T13:20:51.000Z,28
2018-10-07T13:21:51.000Z,28
2018-10-07T13:22:51.000Z,28
2018-10-07T13:23:51.000Z,28
2018-10-07T13:24:51.000Z,28
2018-10-07T13:25:51.000Z,28
2018-10-07T13:26:51.000Z,28
2018-10-07T13:27:51.000Z,28
2018-10-07T13:28:51.000Z,28
2018-10-07T13:29:51.000Z,28
2018-10-07T13:30:51.000Z,28
2018-10-07T13:31:51.000Z,28
2018-10-07T13:32:51.000Z,28
2018-10-07T13:34:51.000Z,28
2018-10-07T13:35:51.000Z,28
2018-10-07T13:36:51.000Z,28
2018-10-07T13:37:51.000Z,28
2018-10-07T13:38:51.000Z,28
2018-10-07T13:40:51.000Z,28
2018-10-07T13:41:51.000Z,27
2018-10-07T13:42:51.000Z,27
2018-10-07T13:43:51.000Z,26
2018-10-07T13:44:51.000Z,26
2018-10-07T13:45:51.000Z,25
2018-10-07T13:46:51.000Z,25
2018-10-07T13:47:51.000Z,25
2018-10-07T13:49:51.000Z,24
2018-10-07T13:50:51.000Z,24
2018-10-07T13:51:51.000Z,24
2018-10-07T13:52:51.000Z,24
2018-10-07T13:53:51.000Z,24
2018-10-07T13:54:51.000Z,25
2018-10-07T13:55:51.000Z,25
2018-10-07T13:56:51.000Z,25
2018-10-07T13:57:51.000Z,25
2018-10-07T13:58:51.000Z,25
2018-10-07T13:59:51.000Z,26
2018-10-07T14:00:51.000Z,26
2018-10-07T14:01:51.000Z,26
2018-10-07T14:02:51.000Z,26
2018-10-07T14:03:51.000Z,26
2018-10-07T14:04:51.000Z,26
2018-10-07T14:05:51.000Z,26
2018-10-07T14:07:51.000Z,26
2018-10-07T14:08:51.000Z,26
2018-10-07T14:09:51.000Z,26
2018-10-07T14:10:51.000Z,27
2018-10-07T14:11:51.000Z,27
2018-10-07T14:12:51.000Z,27
2018-10-07T14:13:51.000Z,27
2018-10-07T14:14:51.000Z,27
2018-10-07T14:15:51.000Z,27
2018-10-07T14:16:51.000Z,27
2018-10-07T14:17:51.000Z,27
2018-10-07T14:18:51.000Z,27
2018-10-07T14:19:51.000Z,27
2018-10-07T14:20:51.000Z,27
2018-10-07T14:21:51.000Z,27
2018-10-07T14:22:51.000Z,27
2018-10-07T14:23:51.000Z,27
2018-10-07T14:24:51.000Z,27
2018-10-07T14:25:50.000Z,27
2018-10-07T14:26:50.000Z,27
2018-10-07T14:27:50.000Z,27
2018-10-07T14:28:50.000Z,27
2018-10-07T14:29:50.000Z,27
2018-10-07T14:30:50.000Z,27
2018-10-07T14:32:50.000Z,27
2018-10-07T14:33:50.000Z,27
2018-10-07T14:34:50.000Z,27
2018-10-07T14:35:50.000Z,27
2018-10-07T14:36:50.000Z,27
2018-10-07T14:38:50.000Z,27
2018-10-07T14:39:50.000Z,27
2018-10-07T14:40:50.000Z,27
2018-10-07T14:41:50.000Z,27
2018-10-07T14:42:50.000Z,27
2018-10-07T14:44:50.000Z,27
2018-10-07T14:45:50.000Z,27
2018-10-07T14:46:50.000Z,27
2018-10-07T14:47:50.000Z,27
2018-10-07T14:48:50.000Z,27
2018-10-07T14:50:50.000Z,27
2018-10-07T14:51:50.000Z,27
2018-10-07T14:53:50.000Z,27
2018-10-07T14:54:50.000Z,27
2018-10-07T14:55:50.000Z,28
2018-10-07T14:57:50.000Z,27
2018-10-07T14:58:50.000Z,28
2018-10-07T15:00:50.000Z,27
2018-10-07T15:01:50.000Z,28
2018-10-07T15:02:50.000Z,28
2018-10-07T15:03:50.000Z,28
2018-10-07T15:04:50.000Z,28
2018-10-07T15:05:50.000Z,27
2018-10-07T15:06:50.000Z,28
2018-10-07T15:08:50.000Z,27
2018-10-07T15:09:50.000Z,28
2018-10-07T15:10:50.000Z,28
2018-10-07T15:12:50.000Z,28
2018-10-07T15:13:50.000Z,28
2018-10-07T15:14:50.000Z,28
2018-10-07T15:15:50.000Z,28
2018-10-07T15:16:50.000Z,28
2018-10-07T15:18:50.000Z,28
2018-10-07T15:19:50.000Z,28
2018-10-07T15:20:50.000Z,28
2018-10-07T15:21:50.000Z,28
2018-10-07T15:22:50.000Z,28
2018-10-07T15:23:50.000Z,28
2018-10-07T15:24:50.000Z,28
2018-10-07T15:25:50.000Z,28
2018-10-07T15:26:50.000Z,28
2018-10-07T15:27:50.000Z,28
2018-10-07T15:29:50.000Z,27
2018-10-07T15:30:50.000Z,28
2018-10-07T15:31:50.000Z,28
2018-10-07T15:32:50.000Z,28
2018-10-07T15:33:50.000Z,28
2018-10-07T15:34:50.000Z,28
2018-10-07T15:35:50.000Z,28
2018-10-07T15:37:50.000Z,28
2018-10-07T15:38:50.000Z,28
2018-10-07T15:39:50.000Z,28
2018-10-07T15:40:50.000Z,28
2018-10-07T15:41:50.000Z,28
2018-10-07T15:42:50.000Z,28
2018-10-07T15:44:50.000Z,28
2018-10-07T15:45:50.000Z,28
2018-10-07T15:46:50.000Z,28
2018-10-07T15:47:50.000Z,28
2018-10-07T15:48:50.000Z,28
2018-10-07T15:50:50.000Z,28
2018-10-07T15:51:50.000Z,28
2018-10-07T15:52:50.000Z,28
2018-10-07T15:53:50.000Z,28
2018-10-07T15:55:50.000Z,28
2018-10-07T15:56:50.000Z,28
2018-10-07T15:57:50.000Z,28
2018-10-07T15:58:50.000Z,28
2018-10-07T15:59:50.000Z,28
2018-10-07T16:00:50.000Z,28